This is the latest recevied weather packets stored in our database for station/object AA7DG. If no packets are shown the sender has not sent any weather packets the latest 10 day(s).
| Time | Temp. | Humidity | Pressure | Rain* | Wind** | Luminosity | Snow |
|---|---|---|---|---|---|---|---|
| 1777399201 | 14.44° C | 50% | 1020 hPa | - | - | - | - |
| 1777396501 | 13.89° C | 55% | 1019.8 hPa | - | - | - | - |
| 1777396200 | 13.33° C | 57% | 1019.7 hPa | - | - | - | - |
| 1777395600 | 12.78° C | 59% | 1019.6 hPa | - | - | - | - |
| 1777394702 | 11.11° C | 64% | 1019.6 hPa | - | - | - | - |
| 1777392601 | 10° C | 69% | 1019.7 hPa | - | - | - | - |
| 1777391101 | 9.44° C | 71% | 1019.6 hPa | - | - | - | - |
| 1777388706 | 8.33° C | 74% | 1019.6 hPa | - | - | - | - |
| 1777387206 | 8.89° C | 73% | 1019.3 hPa | - | - | - | - |
| 1777386900 | 8.33° C | 74% | 1019.2 hPa | - | - | - | - |
| 1777382402 | 6.67° C | 80% | 1018.3 hPa | - | - | - | - |
| 1777378520 | 7.22° C | 76% | 1017.6 hPa | - | - | - | - |
| 1777376102 | 7.78° C | 72% | 1017.1 hPa | - | - | - | - |
| 1777375802 | 7.78° C | 72% | 1016.9 hPa | - | - | - | - |
| 1777375207 | 8.33° C | 70% | 1016.9 hPa | - | - | - | - |
| 1777374602 | 8.33° C | 70% | 1016.6 hPa | - | - | - | - |
| 1777374303 | 8.33° C | 69% | 1016.6 hPa | - | - | - | - |
| 1777374001 | 8.33° C | 68% | 1016.6 hPa | - | - | - | - |
| 1777372529 | 8.89° C | 65% | 1016.3 hPa | - | - | - | - |
| 1777370401 | 10° C | 60% | 1015.6 hPa | - | - | - | - |
| 1777369201 | 10.56° C | 58% | 1015.5 hPa | - | - | - | - |
| 1777368910 | 10.56° C | 57% | 1015.5 hPa | - | - | - | - |
| 1777367407 | 11.11° C | 54% | 1015.2 hPa | - | - | - | - |
| 1777366806 | 11.67° C | 53% | 1015.2 hPa | - | - | - | - |
| 1777366206 | 11.67° C | 53% | 1015.2 hPa | - | - | - | - |
* Rain since midnight (hover to see other rain measurements)
** Current wind speed in m/s (hover to see current wind gust speed)